Time;durP1;ratioP1;P1;durP2;ratioP2;P2;SDS_P1;SDS_P2;PMS_P1;PMS_P2;Temp;Humidity;BMP_temperature;BMP_pressure;BME280_temperature;BME280_humidity;BME280_pressure;Samples;Min_cycle;Max_cycle;Signal;HPM_P1;HPM_P2
2022/04/08 00:02:03;;;;;;;5.60;1.57;;;6.50;99.90;;;;;;5005777;28;20197;-81
2022/04/08 00:04:30;;;;;;;5.07;1.20;;;6.60;99.90;;;;;;5017061;28;20171;-81
2022/04/08 00:06:56;;;;;;;3.43;1.20;;;6.60;99.90;;;;;;5017058;28;20175;-82
2022/04/08 00:09:22;;;;;;;3.40;1.07;;;6.70;99.90;;;;;;5015774;28;20290;-81
2022/04/08 00:11:48;;;;;;;3.00;1.30;;;6.70;99.90;;;;;;5016981;28;20216;-81
2022/04/08 00:14:13;;;;;;;4.73;1.10;;;6.70;99.90;;;;;;5017237;28;20589;-82
2022/04/08 00:16:39;;;;;;;3.33;0.77;;;6.70;99.90;;;;;;5016845;28;20174;-80
2022/04/08 00:19:05;;;;;;;5.53;1.07;;;6.70;99.90;;;;;;5015525;28;20218;-81
2022/04/08 00:21:30;;;;;;;3.57;1.40;;;6.60;99.90;;;;;;5015170;28;20234;-81
2022/04/08 00:23:56;;;;;;;3.57;1.03;;;6.60;99.90;;;;;;5016908;28;20172;-81
2022/04/08 00:26:22;;;;;;;4.57;1.20;;;6.60;99.90;;;;;;5015661;28;20183;-81
2022/04/08 00:28:47;;;;;;;5.20;1.10;;;6.70;99.90;;;;;;5016740;28;20179;-82
2022/04/08 00:31:13;;;;;;;3.23;1.07;;;6.70;99.90;;;;;;5016226;28;20229;-82
2022/04/08 00:33:39;;;;;;;4.97;1.00;;;6.60;99.90;;;;;;5016771;28;20167;-82
2022/04/08 00:36:04;;;;;;;1.60;0.80;;;6.60;99.90;;;;;;5015219;28;20176;-82
2022/04/08 00:38:30;;;;;;;3.57;1.00;;;6.70;99.90;;;;;;5016658;28;20583;-81
2022/04/08 00:40:56;;;;;;;3.10;0.90;;;6.70;99.90;;;;;;5015394;28;20187;-81
2022/04/08 00:43:37;;;;;;;3.33;0.90;;;6.60;99.90;;;;;;5015162;28;20226;-82
2022/04/08 00:46:05;;;;;;;3.07;0.90;;;6.50;99.90;;;;;;5015144;28;20190;-81
2022/04/08 00:48:31;;;;;;;1.77;0.70;;;6.50;99.90;;;;;;5016456;28;20258;-82
2022/04/08 00:50:58;;;;;;;3.60;0.80;;;6.50;99.90;;;;;;5016334;28;20737;-81
2022/04/08 00:53:24;;;;;;;2.57;0.80;;;6.40;99.90;;;;;;5014969;28;20175;-82
2022/04/08 00:55:50;;;;;;;4.43;1.03;;;6.40;99.90;;;;;;5016399;28;20251;-82
2022/04/08 00:58:16;;;;;;;2.77;1.03;;;6.40;99.90;;;;;;5014853;28;20230;-82
2022/04/08 01:00:42;;;;;;;2.83;0.90;;;6.50;99.90;;;;;;5014825;28;20184;-82
2022/04/08 01:03:08;;;;;;;2.67;1.00;;;6.50;99.90;;;;;;5015990;28;20187;-82
2022/04/08 01:05:34;;;;;;;5.70;1.20;;;6.50;99.90;;;;;;5016195;28;20601;-82
2022/04/08 01:08:00;;;;;;;4.67;1.00;;;6.50;99.90;;;;;;5015907;28;20179;-82
2022/04/08 01:10:26;;;;;;;2.43;0.80;;;6.40;99.90;;;;;;5014724;28;20222;-81
2022/04/08 01:12:52;;;;;;;4.77;1.20;;;6.40;99.90;;;;;;5015922;28;20210;-82
2022/04/08 01:15:19;;;;;;;2.53;0.90;;;6.50;99.90;;;;;;5016150;28;20203;-82
2022/04/08 01:17:46;;;;;;;1.83;0.87;;;6.50;99.90;;;;;;5015622;28;20210;-81
2022/04/08 01:20:13;;;;;;;3.10;0.80;;;6.50;99.90;;;;;;5015984;28;20176;-82
2022/04/08 01:22:39;;;;;;;3.03;1.07;;;6.50;99.90;;;;;;5015797;28;20627;-82
2022/04/08 01:25:06;;;;;;;3.33;1.13;;;6.50;99.90;;;;;;5015916;28;20183;-82
2022/04/08 01:27:32;;;;;;;4.80;0.97;;;6.50;99.90;;;;;;5015589;28;20571;-83
2022/04/08 01:29:58;;;;;;;3.90;1.10;;;6.50;99.90;;;;;;5015588;28;20222;-81
2022/04/08 01:32:23;;;;;;;3.30;1.10;;;6.50;99.90;;;;;;5013927;28;20326;-82
2022/04/08 01:34:50;;;;;;;1.47;0.63;;;6.50;99.90;;;;;;5014824;28;20191;-83
2022/04/08 01:37:16;;;;;;;2.97;1.20;;;6.50;99.90;;;;;;5014344;28;20186;-82
2022/04/08 01:39:42;;;;;;;3.03;0.80;;;6.50;99.90;;;;;;5015720;28;20239;-82
2022/04/08 01:42:08;;;;;;;2.90;1.03;;;6.50;99.90;;;;;;5015320;28;20190;-81
2022/04/08 01:44:35;;;;;;;4.30;0.90;;;6.60;99.90;;;;;;5015462;28;20179;-82
2022/04/08 01:47:01;;;;;;;3.23;0.90;;;6.50;99.90;;;;;;5013971;28;20187;-82
2022/04/08 01:49:27;;;;;;;2.43;0.93;;;6.50;99.90;;;;;;5015229;28;20210;-82
2022/04/08 01:51:53;;;;;;;2.93;0.67;;;6.50;99.90;;;;;;5015308;28;20179;-82
2022/04/08 01:54:19;;;;;;;3.03;0.70;;;6.40;99.90;;;;;;5015322;28;20202;-81
2022/04/08 01:56:45;;;;;;;3.87;0.97;;;6.40;99.90;;;;;;5013809;28;20364;-82
2022/04/08 01:59:10;;;;;;;2.00;1.00;;;6.30;99.90;;;;;;5013816;28;20206;-82
2022/04/08 02:01:36;;;;;;;2.00;0.70;;;6.30;99.90;;;;;;5013632;28;20622;-81
2022/04/08 02:04:03;;;;;;;1.97;0.60;;;6.20;99.90;;;;;;5015166;28;20179;-81
2022/04/08 02:06:30;;;;;;;1.63;0.60;;;6.20;99.90;;;;;;5013932;28;20633;-81
2022/04/08 02:08:57;;;;;;;3.13;0.80;;;6.10;99.90;;;;;;5013442;28;20236;-81
2022/04/08 02:11:23;;;;;;;2.63;0.70;;;6.10;99.90;;;;;;5014824;28;20194;-81
2022/04/08 02:13:48;;;;;;;2.87;0.90;;;6.10;99.90;;;;;;5015054;28;20205;-82
2022/04/08 02:16:14;;;;;;;3.27;0.90;;;6.00;99.90;;;;;;5013927;28;20186;-81
2022/04/08 02:18:40;;;;;;;1.93;1.00;;;6.00;99.90;;;;;;5014822;28;20183;-81
2022/04/08 02:21:06;;;;;;;1.87;0.80;;;6.10;99.90;;;;;;5014937;28;20171;-82
2022/04/08 02:23:33;;;;;;;4.13;0.80;;;6.00;99.90;;;;;;5014764;28;20189;-81
2022/04/08 02:25:58;;;;;;;2.90;0.80;;;5.90;99.90;;;;;;5013513;28;20254;-82
2022/04/08 02:28:24;;;;;;;2.73;0.73;;;5.90;99.90;;;;;;5014673;28;20207;-81
2022/04/08 02:30:52;;;;;;;2.87;0.97;;;5.80;99.90;;;;;;5013081;28;20218;-81
2022/04/08 02:33:19;;;;;;;2.73;0.90;;;5.90;99.90;;;;;;5013152;28;20212;-81
2022/04/08 02:35:44;;;;;;;2.70;0.70;;;5.90;99.90;;;;;;5014708;28;20594;-81
2022/04/08 02:38:11;;;;;;;3.27;0.93;;;5.80;99.90;;;;;;5014479;28;20255;-81
2022/04/08 02:40:36;;;;;;;1.93;0.70;;;5.80;99.90;;;;;;5014487;28;20221;-82
2022/04/08 02:43:03;;;;;;;2.63;1.00;;;5.80;99.90;;;;;;5013268;28;20175;-82
2022/04/08 02:45:29;;;;;;;2.83;0.90;;;5.80;99.90;;;;;;5014271;28;20172;-81
2022/04/08 02:47:55;;;;;;;2.83;0.77;;;5.80;99.90;;;;;;5012980;28;20321;-82
2022/04/08 02:50:20;;;;;;;6.77;1.43;;;6.00;99.90;;;;;;5014437;28;20223;-82
2022/04/08 02:52:46;;;;;;;4.53;1.10;;;6.00;99.90;;;;;;5014048;28;20262;-82
2022/04/08 02:55:12;;;;;;;3.13;0.90;;;6.00;99.90;;;;;;5014326;28;20179;-81
2022/04/08 02:57:46;;;;;;;4.03;1.13;;;6.00;99.90;;;;;;5014393;28;20609;-81
2022/04/08 03:00:20;;;;;;;4.50;1.10;;;6.00;99.90;;;;;;5013140;28;20183;-81
2022/04/08 03:02:48;;;;;;;4.40;1.10;;;6.00;99.90;;;;;;5012828;28;20190;-82
2022/04/08 03:05:14;;;;;;;2.23;0.87;;;6.00;99.90;;;;;;5014566;28;20510;-82
2022/04/08 03:07:40;;;;;;;5.40;1.17;;;6.00;99.90;;;;;;5012795;28;20205;-82
2022/04/08 03:10:08;;;;;;;2.97;0.80;;;6.00;99.90;;;;;;5013075;28;20299;-81
2022/04/08 03:12:34;;;;;;;2.00;0.80;;;6.00;99.90;;;;;;5013094;28;20613;-82
2022/04/08 03:15:00;;;;;;;5.73;1.47;;;6.00;99.90;;;;;;5014262;28;20182;-82
2022/04/08 03:17:26;;;;;;;3.57;1.07;;;5.90;99.90;;;;;;5012736;28;20175;-82
2022/04/08 03:19:52;;;;;;;5.47;1.47;;;5.90;99.90;;;;;;5012893;28;20183;-81
2022/04/08 03:22:20;;;;;;;6.17;1.93;;;5.90;99.90;;;;;;5014034;28;20250;-81
2022/04/08 03:24:52;;;;;;;3.80;1.30;;;5.90;99.90;;;;;;5014321;28;20171;-81
2022/04/08 03:27:18;;;;;;;6.40;1.20;;;5.90;99.90;;;;;;5014166;28;20251;-82
2022/04/08 03:29:44;;;;;;;8.63;1.90;;;5.90;99.90;;;;;;5013089;28;20546;-82
2022/04/08 03:32:11;;;;;;;3.93;1.27;;;5.90;99.90;;;;;;5012359;28;20227;-82
2022/04/08 03:34:37;;;;;;;3.80;1.30;;;5.80;99.90;;;;;;5013910;28;20206;-81
2022/04/08 03:37:04;;;;;;;3.20;1.23;;;5.80;99.90;;;;;;5012824;28;20186;-82
2022/04/08 03:39:29;;;;;;;5.80;1.60;;;5.80;99.90;;;;;;5013908;28;20179;-81
2022/04/08 03:41:55;;;;;;;8.27;1.63;;;5.80;99.90;;;;;;5013929;28;20459;-82
2022/04/08 03:44:20;;;;;;;4.50;1.20;;;5.80;99.90;;;;;;5012582;28;20179;-82
2022/04/08 03:46:47;;;;;;;4.23;1.20;;;5.80;99.90;;;;;;5013767;28;20630;-82
2022/04/08 03:49:16;;;;;;;3.00;1.37;;;5.70;99.90;;;;;;5012402;28;20206;-82
2022/04/08 03:51:46;;;;;;;3.03;1.07;;;5.80;99.90;;;;;;5012529;28;20179;-81
2022/04/08 03:54:13;;;;;;;3.87;1.10;;;5.80;99.90;;;;;;5012692;28;20179;-81
2022/04/08 03:56:41;;;;;;;4.30;1.00;;;5.70;99.90;;;;;;5014669;28;20250;-82
2022/04/08 03:59:08;;;;;;;4.80;1.20;;;5.70;99.90;;;;;;5017574;28;20218;-82
2022/04/08 04:01:34;;;;;;;3.03;0.80;;;5.70;99.90;;;;;;5016946;28;20175;-82
2022/04/08 04:04:00;;;;;;;6.30;1.10;;;5.70;99.90;;;;;;5017184;28;20515;-81
2022/04/08 04:06:26;;;;;;;2.53;1.00;;;5.70;99.90;;;;;;5017462;28;20163;-82
2022/04/08 04:08:51;;;;;;;1.27;0.60;;;5.50;99.90;;;;;;5016646;28;20237;-82
2022/04/08 04:11:17;;;;;;;4.90;1.23;;;5.40;99.90;;;;;;5015827;28;20191;-82
2022/04/08 04:13:44;;;;;;;3.03;0.97;;;5.40;99.90;;;;;;5017177;28;20194;-82
2022/04/08 04:16:10;;;;;;;4.07;1.07;;;5.40;99.90;;;;;;5015872;28;20183;-82
2022/04/08 04:18:36;;;;;;;4.83;1.00;;;5.40;99.90;;;;;;5016607;28;20180;-82
2022/04/08 04:21:02;;;;;;;2.10;0.70;;;5.40;99.90;;;;;;5017163;28;20225;-82
2022/04/08 04:23:28;;;;;;;2.97;0.80;;;5.30;99.90;;;;;;5016680;28;20190;-82
2022/04/08 04:25:54;;;;;;;2.60;0.90;;;5.30;99.90;;;;;;5017020;28;20262;-82
2022/04/08 04:28:19;;;;;;;4.43;1.13;;;5.40;99.90;;;;;;5016904;28;20648;-82
2022/04/08 04:30:45;;;;;;;6.00;0.93;;;5.30;99.90;;;;;;5016497;28;20298;-82
2022/04/08 04:33:11;;;;;;;1.97;0.80;;;5.40;99.90;;;;;;5016347;28;20191;-82
2022/04/08 04:35:38;;;;;;;2.43;0.90;;;5.40;99.90;;;;;;5016808;28;20202;-82
2022/04/08 04:38:04;;;;;;;3.13;1.07;;;5.40;99.90;;;;;;5016585;28;20567;-82
2022/04/08 04:40:30;;;;;;;4.43;1.07;;;5.30;99.90;;;;;;5016639;28;20171;-82
2022/04/08 04:42:56;;;;;;;5.57;1.20;;;5.30;99.90;;;;;;5016576;28;20190;-81
2022/04/08 04:45:22;;;;;;;6.70;1.30;;;5.40;99.90;;;;;;5016257;28;20183;-82
2022/04/08 04:47:48;;;;;;;5.63;1.60;;;5.40;99.90;;;;;;5014797;28;20650;-81
2022/04/08 04:50:14;;;;;;;6.60;1.57;;;5.40;99.90;;;;;;5015193;28;20302;-82
2022/04/08 04:52:39;;;;;;;6.17;1.27;;;5.30;99.90;;;;;;5015018;28;20224;-81
2022/04/08 04:55:06;;;;;;;4.07;1.10;;;5.30;99.90;;;;;;5016002;28;20626;-81
2022/04/08 04:57:31;;;;;;;3.73;1.40;;;5.30;99.90;;;;;;5015155;28;20607;-81
2022/04/08 04:59:57;;;;;;;4.53;0.83;;;5.30;99.90;;;;;;5016208;28;20198;-82
2022/04/08 05:02:23;;;;;;;2.13;0.80;;;5.20;99.90;;;;;;5007939;28;20172;-83
2022/04/08 05:04:48;;;;;;;4.23;0.83;;;5.10;99.90;;;;;;4996777;28;20187;-81
2022/04/08 05:07:14;;;;;;;2.23;0.83;;;4.90;99.90;;;;;;4995283;28;20172;-82
2022/04/08 05:09:41;;;;;;;2.77;0.60;;;4.80;99.90;;;;;;4996558;28;20290;-82
2022/04/08 05:12:08;;;;;;;2.03;0.60;;;4.70;99.90;;;;;;4996170;28;20187;-83
2022/04/08 05:14:34;;;;;;;2.83;0.87;;;4.70;99.90;;;;;;4996447;28;20173;-82
2022/04/08 05:16:59;;;;;;;3.37;0.90;;;4.60;99.90;;;;;;4994869;28;20258;-82
2022/04/08 05:19:25;;;;;;;3.67;0.90;;;4.70;99.90;;;;;;4995184;28;20184;-83
2022/04/08 05:21:52;;;;;;;5.80;0.90;;;4.60;99.90;;;;;;4995053;28;20184;-81
2022/04/08 05:24:19;;;;;;;5.53;0.90;;;4.60;99.90;;;;;;4996378;28;20179;-83
2022/04/08 05:26:45;;;;;;;8.63;1.13;;;4.50;99.90;;;;;;4996483;28;20552;-82
2022/04/08 05:29:10;;;;;;;1.97;0.87;;;4.40;99.90;;;;;;4994673;28;20212;-82
2022/04/08 05:31:36;;;;;;;4.03;0.90;;;4.30;99.90;;;;;;5001916;28;20231;-82
2022/04/08 05:34:01;;;;;;;9.17;0.97;;;4.30;99.90;;;;;;5014268;28;20583;-82
2022/04/08 05:36:27;;;;;;;2.23;0.73;;;4.40;99.90;;;;;;5014512;28;20277;-82
2022/04/08 05:38:53;;;;;;;5.23;1.00;;;4.40;99.90;;;;;;5015664;28;20279;-82
2022/04/08 05:41:18;;;;;;;3.43;0.73;;;4.40;99.90;;;;;;5015571;28;20274;-83
2022/04/08 05:43:45;;;;;;;5.53;0.90;;;4.30;99.90;;;;;;5014299;28;20179;-82
2022/04/08 05:46:11;;;;;;;4.70;0.80;;;4.40;99.90;;;;;;5014238;28;20183;-82
2022/04/08 05:48:37;;;;;;;3.23;0.60;;;4.40;99.90;;;;;;5015209;28;20160;-82
2022/04/08 05:51:03;;;;;;;1.87;0.70;;;4.40;99.90;;;;;;5014078;28;20226;-82
2022/04/08 05:53:29;;;;;;;2.43;0.70;;;4.50;99.90;;;;;;5014059;28;20179;-82
2022/04/08 05:55:56;;;;;;;2.10;0.73;;;4.50;99.90;;;;;;5014144;28;20270;-82
2022/04/08 05:58:21;;;;;;;3.30;0.80;;;4.60;99.90;;;;;;5014003;28;20191;-82
2022/04/08 06:00:47;;;;;;;2.80;0.83;;;4.60;99.90;;;;;;5013970;28;20641;-82
2022/04/08 06:03:13;;;;;;;1.97;0.70;;;4.70;99.90;;;;;;5013554;28;20666;-82
2022/04/08 06:05:38;;;;;;;3.23;0.77;;;4.70;99.90;;;;;;5015238;28;20183;-82
2022/04/08 06:08:04;;;;;;;5.40;1.47;;;4.80;99.90;;;;;;5013971;28;20179;-82
2022/04/08 06:10:30;;;;;;;1.50;0.53;;;4.80;99.90;;;;;;5013796;28;20219;-82
2022/04/08 06:12:56;;;;;;;1.97;0.70;;;4.80;99.90;;;;;;5015005;28;20658;-82
2022/04/08 06:15:23;;;;;;;2.90;0.87;;;4.80;99.90;;;;;;5014931;28;20600;-82
2022/04/08 06:17:48;;;;;;;3.47;0.80;;;4.90;99.90;;;;;;5013402;28;20182;-82
2022/04/08 06:20:16;;;;;;;2.73;0.67;;;4.90;99.90;;;;;;5013330;28;20187;-82
2022/04/08 06:22:42;;;;;;;2.47;0.73;;;5.00;99.90;;;;;;5013566;28;20187;-82
2022/04/08 06:25:10;;;;;;;3.67;0.97;;;5.10;99.90;;;;;;5013015;28;20183;-82
2022/04/08 06:27:36;;;;;;;2.60;0.87;;;5.10;99.90;;;;;;5014664;28;20190;-82
2022/04/08 06:30:03;;;;;;;4.13;0.80;;;5.10;99.90;;;;;;5014670;28;20203;-81
2022/04/08 06:32:29;;;;;;;3.53;1.10;;;5.10;99.90;;;;;;5014035;28;20258;-82
2022/04/08 06:34:54;;;;;;;7.23;1.07;;;5.20;99.90;;;;;;5014736;28;20218;-82
2022/04/08 06:37:20;;;;;;;1.63;0.80;;;5.30;99.90;;;;;;5014563;28;20175;-81
2022/04/08 06:39:47;;;;;;;6.03;1.10;;;5.30;99.90;;;;;;5013235;28;20175;-81
2022/04/08 06:42:13;;;;;;;3.93;0.93;;;5.50;99.90;;;;;;5013186;28;20183;-81
2022/04/08 06:44:39;;;;;;;5.17;1.00;;;5.50;99.90;;;;;;5013209;28;20266;-82
2022/04/08 06:47:05;;;;;;;3.30;1.10;;;5.70;99.90;;;;;;5012968;28;20277;-81
2022/04/08 06:49:30;;;;;;;3.77;0.87;;;5.70;99.90;;;;;;5014587;28;20213;-81
2022/04/08 06:51:58;;;;;;;5.40;1.03;;;5.60;99.90;;;;;;5013192;28;20190;-81
2022/04/08 06:54:25;;;;;;;4.80;1.23;;;5.50;99.90;;;;;;5013513;28;20557;-81
2022/04/08 06:56:51;;;;;;;4.83;0.90;;;5.40;99.90;;;;;;5014416;28;20171;-81
2022/04/08 06:59:17;;;;;;;4.53;1.00;;;5.40;99.90;;;;;;5014339;28;20506;-82
2022/04/08 07:01:42;;;;;;;3.03;0.97;;;5.30;99.90;;;;;;5013019;28;20179;-81
2022/04/08 07:04:08;;;;;;;7.40;1.27;;;5.20;99.90;;;;;;5014074;28;20180;-82
2022/04/08 07:06:34;;;;;;;5.77;1.13;;;5.10;99.90;;;;;;5013076;28;20171;-81
2022/04/08 07:09:00;;;;;;;2.90;0.80;;;4.90;99.90;;;;;;5014254;28;20210;-81
2022/04/08 07:11:25;;;;;;;6.03;1.00;;;4.90;99.90;;;;;;5012882;28;20282;-81
2022/04/08 07:13:51;;;;;;;5.17;1.20;;;4.90;99.90;;;;;;5013082;28;20234;-81
2022/04/08 07:16:17;;;;;;;2.70;0.73;;;5.10;99.90;;;;;;5014356;28;20286;-82
2022/04/08 07:18:42;;;;;;;10.57;1.80;;;5.30;99.90;;;;;;5013928;28;20164;-81
2022/04/08 07:21:09;;;;;;;3.83;1.20;;;5.30;99.90;;;;;;5014238;28;20186;-82
2022/04/08 07:23:36;;;;;;;2.93;0.90;;;5.50;99.90;;;;;;5012861;28;20186;-81
2022/04/08 07:26:02;;;;;;;4.77;1.20;;;5.50;99.90;;;;;;5014132;28;20190;-82
2022/04/08 07:28:28;;;;;;;3.70;1.20;;;5.60;99.90;;;;;;5014139;28;20221;-81
2022/04/08 07:30:54;;;;;;;5.17;1.07;;;5.70;99.90;;;;;;5012530;28;20737;-81
2022/04/08 07:33:19;;;;;;;3.27;0.90;;;5.70;99.90;;;;;;5015940;28;20182;-82
2022/04/08 07:35:45;;;;;;;7.23;1.47;;;5.80;99.90;;;;;;5017977;28;20179;-81
2022/04/08 07:38:11;;;;;;;6.03;1.30;;;5.90;99.90;;;;;;5017858;28;20254;-82
2022/04/08 07:40:36;;;;;;;5.40;1.07;;;5.90;99.90;;;;;;5016329;28;20614;-81
2022/04/08 07:43:02;;;;;;;4.07;1.00;;;6.00;99.90;;;;;;5017846;28;20178;-82
2022/04/08 07:45:29;;;;;;;5.37;1.77;;;6.10;99.90;;;;;;5017818;28;20185;-81
2022/04/08 07:47:57;;;;;;;6.07;1.30;;;6.40;99.90;;;;;;5017431;28;20243;-82
2022/04/08 07:50:23;;;;;;;7.30;1.70;;;6.50;99.90;;;;;;5016398;28;20226;-81
2022/04/08 07:52:48;;;;;;;5.70;1.50;;;6.40;99.90;;;;;;5017501;28;20255;-82
2022/04/08 07:55:14;;;;;;;6.60;1.17;;;6.40;99.90;;;;;;5016203;28;20211;-82
2022/04/08 07:57:47;;;;;;;6.00;1.20;;;6.20;99.90;;;;;;5017473;28;20167;-82
2022/04/08 08:00:14;;;;;;;7.87;1.60;;;6.20;99.90;;;;;;5017490;28;20187;-82
2022/04/08 08:02:41;;;;;;;6.57;1.40;;;6.20;99.90;;;;;;5015714;28;20522;-82
2022/04/08 08:05:07;;;;;;;6.23;1.70;;;6.20;99.90;;;;;;5017498;28;20194;-82
2022/04/08 08:07:43;;;;;;;8.20;2.10;;;6.40;99.90;;;;;;5015870;28;20183;-81
2022/04/08 08:10:09;;;;;;;7.97;1.83;;;6.50;99.90;;;;;;5015905;28;20696;-82
2022/04/08 08:12:35;;;;;;;5.97;1.50;;;6.60;99.90;;;;;;5017282;28;20179;-82
2022/04/08 08:15:00;;;;;;;3.60;1.13;;;6.70;99.90;;;;;;5017200;28;20183;-82
2022/04/08 08:17:26;;;;;;;7.93;2.50;;;6.80;99.90;;;;;;5015517;28;20206;-82
2022/04/08 08:19:51;;;;;;;10.20;1.70;;;6.80;99.90;;;;;;5015799;28;20176;-82
2022/04/08 08:22:17;;;;;;;12.00;1.77;;;6.90;99.90;;;;;;5015650;28;20183;-81
2022/04/08 08:24:43;;;;;;;5.73;1.70;;;7.00;99.90;;;;;;5015635;28;20662;-82
2022/04/08 08:27:09;;;;;;;5.80;1.37;;;7.10;99.90;;;;;;5016918;28;20182;-82
2022/04/08 08:29:35;;;;;;;7.23;1.83;;;7.10;99.90;;;;;;5015541;28;20720;-82
2022/04/08 08:32:01;;;;;;;8.17;2.00;;;7.10;99.90;;;;;;5016541;28;20227;-82
2022/04/08 08:34:26;;;;;;;8.77;1.60;;;7.10;99.90;;;;;;5016485;28;20236;-82
2022/04/08 08:36:57;;;;;;;7.60;1.60;;;6.90;99.90;;;;;;5016649;28;20594;-82
2022/04/08 08:39:23;;;;;;;4.87;1.30;;;7.00;99.90;;;;;;5015526;28;20183;-82
2022/04/08 08:41:49;;;;;;;11.03;1.87;;;7.30;99.90;;;;;;5016641;28;20672;-82
2022/04/08 08:44:15;;;;;;;13.80;1.77;;;7.20;99.90;;;;;;5016257;28;20217;-82
2022/04/08 08:46:40;;;;;;;8.33;1.90;;;7.20;99.90;;;;;;5015271;28;20274;-82
2022/04/08 08:49:06;;;;;;;5.17;1.50;;;7.10;99.90;;;;;;5014989;28;20183;-82
2022/04/08 08:51:36;;;;;;;8.97;1.50;;;6.90;99.90;;;;;;5016344;28;20179;-82
2022/04/08 08:54:02;;;;;;;7.73;1.63;;;6.80;99.90;;;;;;5015395;28;20175;-82
2022/04/08 08:56:28;;;;;;;8.70;1.33;;;6.80;99.90;;;;;;5016554;28;20205;-82
2022/04/08 08:58:54;;;;;;;5.93;1.60;;;6.60;99.90;;;;;;5015050;28;20185;-82
2022/04/08 09:01:20;;;;;;;7.33;1.43;;;6.40;99.90;;;;;;5016329;28;20259;-81
2022/04/08 09:03:45;;;;;;;7.40;1.70;;;6.10;99.90;;;;;;5015938;28;20175;-82
2022/04/08 09:06:11;;;;;;;7.90;1.60;;;6.10;99.90;;;;;;5016101;28;20217;-82
2022/04/08 09:08:38;;;;;;;8.80;1.90;;;6.10;99.90;;;;;;5016204;28;20191;-82
2022/04/08 09:11:05;;;;;;;9.97;2.33;;;6.20;99.90;;;;;;5014939;28;20650;-82
2022/04/08 09:13:31;;;;;;;5.10;1.30;;;6.40;99.90;;;;;;5014691;28;20229;-82
2022/04/08 09:15:59;;;;;;;8.77;1.80;;;6.40;99.90;;;;;;5015034;28;20178;-82
2022/04/08 09:18:30;;;;;;;7.57;1.53;;;6.60;99.90;;;;;;5015544;28;20167;-82
2022/04/08 09:20:59;;;;;;;10.07;1.97;;;6.90;99.90;;;;;;5015861;28;20182;-82
2022/04/08 09:23:26;;;;;;;8.70;1.53;;;7.10;99.90;;;;;;5015856;28;20548;-82
2022/04/08 09:26:00;;;;;;;6.03;2.00;;;7.00;99.90;;;;;;5014501;28;20195;-82
2022/04/08 09:28:33;;;;;;;5.30;1.97;;;6.90;99.90;;;;;;5015765;28;20533;-82
2022/04/08 09:31:00;;;;;;;8.07;1.83;;;6.90;99.90;;;;;;5014128;28;20234;-82
2022/04/08 09:33:27;;;;;;;6.07;1.77;;;6.70;99.90;;;;;;5013961;28;20672;-82
2022/04/08 09:35:57;;;;;;;6.03;1.50;;;6.70;99.90;;;;;;5015693;28;20179;-82
2022/04/08 09:38:28;;;;;;;9.83;1.67;;;6.70;99.90;;;;;;5015759;28;20202;-81
2022/04/08 09:41:07;;;;;;;6.67;1.80;;;6.70;99.90;;;;;;5014319;28;20624;-82
2022/04/08 09:43:35;;;;;;;6.77;1.47;;;6.70;99.90;;;;;;5015349;28;20175;-82
2022/04/08 09:46:17;;;;;;;4.90;1.70;;;6.70;99.90;;;;;;5014248;28;20183;-82
2022/04/08 09:48:44;;;;;;;7.33;1.50;;;6.70;99.90;;;;;;5013871;28;20190;-82
2022/04/08 09:51:12;;;;;;;5.30;1.63;;;6.70;99.90;;;;;;5014239;28;20215;-82
2022/04/08 09:53:40;;;;;;;8.50;2.30;;;6.80;99.90;;;;;;5013843;28;20195;-82
2022/04/08 09:56:12;;;;;;;8.17;1.77;;;6.80;99.90;;;;;;5013371;28;20242;-82
2022/04/08 09:58:40;;;;;;;7.57;1.70;;;6.90;99.90;;;;;;5015286;28;20163;-83
2022/04/08 10:01:07;;;;;;;6.23;1.70;;;7.00;99.90;;;;;;5015186;28;20254;-82
2022/04/08 10:03:34;;;;;;;5.93;1.40;;;7.00;99.90;;;;;;5014838;28;20598;-82
2022/04/08 10:06:00;;;;;;;5.97;1.60;;;7.00;99.90;;;;;;5015157;28;20222;-82
2022/04/08 10:08:27;;;;;;;8.03;1.50;;;6.90;99.90;;;;;;5014923;28;20191;-82
2022/04/08 10:11:12;;;;;;;6.50;1.57;;;6.80;99.90;;;;;;5013754;28;20215;-83
2022/04/08 10:13:53;;;;;;;6.57;1.63;;;6.80;99.90;;;;;;5013916;28;20175;-82
2022/04/08 10:16:20;;;;;;;9.80;1.83;;;6.70;99.90;;;;;;5014923;28;20175;-82
2022/04/08 10:18:47;;;;;;;7.83;1.80;;;6.60;99.90;;;;;;5013269;28;20222;-83
2022/04/08 10:21:14;;;;;;;7.47;1.57;;;6.60;99.90;;;;;;5013575;28;20175;-82
2022/04/08 10:23:50;;;;;;;10.23;1.30;;;6.50;99.90;;;;;;5013508;28;20176;-82
2022/04/08 10:26:29;;;;;;;5.60;1.80;;;6.60;99.90;;;;;;5014872;28;20230;-82
2022/04/08 10:28:55;;;;;;;5.93;1.70;;;6.50;99.90;;;;;;5014783;28;20163;-82
2022/04/08 10:31:26;;;;;;;7.00;1.50;;;6.50;99.90;;;;;;5012964;28;20301;-82
2022/04/08 10:33:55;;;;;;;3.70;1.57;;;6.40;99.90;;;;;;5014898;28;20494;-82
2022/04/08 10:36:31;;;;;;;8.07;1.33;;;6.60;99.90;;;;;;5014674;28;20171;-81
2022/04/08 10:39:12;;;;;;;8.90;1.80;;;6.70;99.90;;;;;;5013346;28;20206;-82
2022/04/08 10:41:51;;;;;;;7.30;1.73;;;6.70;99.90;;;;;;5014654;28;20238;-82
2022/04/08 10:44:39;;;;;;;7.67;1.60;;;6.60;99.90;;;;;;5013218;28;20494;-83
2022/04/08 10:47:16;;;;;;;4.13;1.50;;;6.60;99.90;;;;;;5014810;28;20616;-82
2022/04/08 10:49:58;;;;;;;5.73;2.07;;;6.60;99.90;;;;;;5014230;28;20253;-82
2022/04/08 10:52:26;;;;;;;6.10;1.70;;;6.70;99.90;;;;;;5014597;28;20597;-81
2022/04/08 10:55:07;;;;;;;6.40;1.80;;;6.80;99.90;;;;;;5013210;28;20206;-82
2022/04/08 10:57:45;;;;;;;6.23;1.70;;;7.00;99.90;;;;;;5014578;28;20538;-81
2022/04/08 11:00:18;;;;;;;6.00;1.70;;;7.00;99.90;;;;;;5014547;28;20167;-81
2022/04/08 11:02:45;;;;;;;9.13;1.80;;;7.00;99.90;;;;;;5012685;28;20183;-80
2022/04/08 11:05:16;;;;;;;7.70;1.93;;;7.10;99.90;;;;;;5013164;28;20399;-83
2022/04/08 11:07:43;;;;;;;8.97;2.07;;;7.10;99.90;;;;;;5018422;28;20175;-83
2022/04/08 11:10:15;;;;;;;9.30;2.07;;;7.20;99.90;;;;;;5018457;28;20233;-82
2022/04/08 11:12:46;;;;;;;6.60;1.63;;;7.60;99.90;;;;;;5017250;28;20193;-81
2022/04/08 11:15:20;;;;;;;4.87;1.70;;;7.80;99.90;;;;;;5018210;28;20540;-82
2022/04/08 11:17:47;;;;;;;5.63;2.03;;;7.90;99.90;;;;;;5018131;28;20209;-83
2022/04/08 11:20:21;;;;;;;14.27;2.47;;;7.90;99.90;;;;;;5018351;28;20168;-82
2022/04/08 11:22:52;;;;;;;11.53;2.00;;;7.90;99.90;;;;;;5016700;28;20174;-82
2022/04/08 11:25:27;;;;;;;6.23;2.00;;;8.00;99.90;;;;;;5016859;28;20510;-82
2022/04/08 11:28:05;;;;;;;4.60;1.60;;;8.00;99.90;;;;;;5016749;28;20181;-84
2022/04/08 11:30:33;;;;;;;8.27;2.20;;;8.00;99.90;;;;;;5018039;28;20195;-82
2022/04/08 11:32:59;;;;;;;6.20;2.00;;;8.20;99.90;;;;;;5016074;28;20232;-82
2022/04/08 11:35:31;;;;;;;5.80;1.77;;;8.30;99.90;;;;;;5016791;28;20183;-83
2022/04/08 11:37:57;;;;;;;7.33;1.97;;;8.40;99.90;;;;;;5017740;28;20257;-82
2022/04/08 11:40:23;;;;;;;5.57;2.00;;;8.30;99.90;;;;;;5016416;28;20463;-82
2022/04/08 11:42:48;;;;;;;5.50;1.77;;;8.20;99.90;;;;;;5017667;28;20180;-83
2022/04/08 11:45:15;;;;;;;8.37;2.40;;;7.90;99.90;;;;;;5017911;28;20179;-83
2022/04/08 11:47:49;;;;;;;9.30;1.63;;;7.70;99.90;;;;;;5017691;28;20274;-82
2022/04/08 11:50:27;;;;;;;4.57;1.50;;;7.60;99.90;;;;;;5017666;28;20210;-83
2022/04/08 11:52:56;;;;;;;6.43;1.70;;;7.40;99.90;;;;;;5017635;28;20163;-82
2022/04/08 11:55:27;;;;;;;6.97;1.70;;;7.50;99.90;;;;;;5017504;28;20172;-83
2022/04/08 11:57:53;;;;;;;4.93;1.50;;;7.40;99.90;;;;;;5016188;28;20187;-84
2022/04/08 12:00:27;;;;;;;4.60;1.50;;;7.30;99.90;;;;;;5017698;28;20250;-83
2022/04/08 12:02:57;;;;;;;4.23;1.40;;;7.30;99.90;;;;;;5016995;28;20183;-83
2022/04/08 12:05:25;;;;;;;6.47;2.40;;;7.30;99.90;;;;;;5017374;28;20189;-83
2022/04/08 12:07:55;;;;;;;4.70;1.93;;;7.20;99.90;;;;;;5015907;28;20241;-84
2022/04/08 12:10:23;;;;;;;4.43;1.37;;;7.40;99.90;;;;;;5017379;28;20211;-82
2022/04/08 12:12:48;;;;;;;6.47;1.70;;;7.50;99.90;;;;;;5015937;28;20214;-82
2022/04/08 12:15:14;;;;;;;7.97;1.80;;;7.90;99.90;;;;;;5015960;28;20187;-83
2022/04/08 12:17:41;;;;;;;3.93;1.70;;;8.20;99.90;;;;;;5016288;28;20183;-83
2022/04/08 12:20:14;;;;;;;5.03;1.50;;;8.50;99.90;;;;;;5016945;28;20167;-82
2022/04/08 12:22:40;;;;;;;5.73;1.70;;;8.70;99.90;;;;;;5017021;28;20186;-82
2022/04/08 12:25:07;;;;;;;4.60;1.70;;;8.80;99.90;;;;;;5015801;28;20258;-83
2022/04/08 12:27:34;;;;;;;5.43;1.37;;;8.80;99.90;;;;;;5015736;28;20190;-83
2022/04/08 12:30:02;;;;;;;6.20;1.80;;;8.80;99.90;;;;;;5015533;28;20230;-82
2022/04/08 12:32:48;;;;;;;5.40;1.77;;;8.80;99.90;;;;;;5015339;28;20231;-81
2022/04/08 12:35:14;;;;;;;6.57;1.63;;;8.80;99.90;;;;;;5015028;28;20237;-82
2022/04/08 12:37:40;;;;;;;5.10;1.63;;;8.90;99.90;;;;;;5016743;28;20258;-83
2022/04/08 12:40:07;;;;;;;6.37;1.50;;;8.90;99.90;;;;;;5016838;28;20175;-82
2022/04/08 12:42:36;;;;;;;6.13;1.63;;;8.80;99.90;;;;;;5015322;28;20183;-82
2022/04/08 12:45:03;;;;;;;7.37;1.70;;;8.80;99.90;;;;;;5015392;28;20198;-83
2022/04/08 12:47:29;;;;;;;4.27;1.73;;;8.80;99.90;;;;;;5016671;28;20190;-82
2022/04/08 12:49:55;;;;;;;5.80;1.70;;;8.80;99.90;;;;;;5008450;28;20404;-83
2022/04/08 12:52:21;;;;;;;5.27;2.20;;;8.70;99.90;;;;;;5001739;28;20183;-82
2022/04/08 12:54:49;;;;;;;7.30;2.10;;;8.80;99.90;;;;;;4996783;28;20180;-83
2022/04/08 12:57:15;;;;;;;6.73;1.97;;;8.90;99.90;;;;;;4996372;28;20231;-83
2022/04/08 12:59:41;;;;;;;7.50;2.00;;;9.10;99.90;;;;;;4995492;28;20246;-83